Time;durP1;ratioP1;P1;durP2;ratioP2;P2;SDS_P1;SDS_P2;PMS_P1;PMS_P2;Temp;Humidity;BMP_temperature;BMP_pressure;BME280_temperature;BME280_humidity;BME280_pressure;Samples;Min_cycle;Max_cycle;Signal;HPM_P1;HPM_P2
2021/08/26 00:00:09;;;;;;;;;;;;;;;13.05;71.98;96420.06;5092428;28;20385;-83
2021/08/26 00:08:04;;;;;;;;;;;;;;;13.06;72.38;96411.16;5093090;28;20435;-83
2021/08/26 00:10:30;;;;;;;;;;;;;;;13.04;72.44;96407.94;5093862;28;19953;-83
2021/08/26 00:12:57;;;;;;;;;;;;;;;13.05;72.26;96406.91;5094303;28;19951;-83
2021/08/26 00:15:23;;;;;;;;;;;;;;;13.06;72.15;96402.44;5093891;28;19956;-83
2021/08/26 00:17:49;;;;;;;;;;;;;;;13.07;72.12;96404.03;5076242;28;20344;-83
2021/08/26 00:20:15;;;;;;;;;;;;;;;13.06;72.26;96403.25;5093788;28;19951;-83
2021/08/26 00:22:41;;;;;;;;;;;;;;;13.08;72.32;96395.09;5092548;28;19955;-83
2021/08/26 00:25:07;;;;;;;;;;;;;;;13.07;72.49;96390.88;5093766;28;20331;-84
2021/08/26 00:27:34;;;;;;;;;;;;;;;13.06;72.37;96384.00;5094158;28;19965;-83
2021/08/26 00:30:00;;;;;;;;;;;;;;;13.04;72.17;96384.25;5092713;28;19958;-83
2021/08/26 00:32:28;;;;;;;;;;;;;;;13.05;72.42;96385.06;5094004;28;19959;-83
2021/08/26 00:34:54;;;;;;;;;;;;;;;13.04;72.50;96381.63;5092535;28;19966;-83
2021/08/26 00:37:20;;;;;;;;;;;;;;;13.05;72.84;96377.16;5093658;28;20431;-83
2021/08/26 00:39:49;;;;;;;;;;;;;;;13.04;72.72;96380.81;5093806;28;19963;-83
2021/08/26 00:42:15;;;;;;;;;;;;;;;13.02;72.38;96373.16;5092745;28;20296;-83
2021/08/26 00:44:41;;;;;;;;;;;;;;;13.02;72.55;96377.59;5092203;28;19956;-83
2021/08/26 00:47:08;;;;;;;;;;;;;;;12.98;72.18;96367.56;5092564;28;20049;-84
2021/08/26 00:49:34;;;;;;;;;;;;;;;12.94;72.24;96369.06;5093459;28;19977;-83
2021/08/26 00:52:00;;;;;;;;;;;;;;;12.93;72.24;96370.06;5092036;28;19960;-83
2021/08/26 00:54:26;;;;;;;;;;;;;;;12.90;72.31;96367.13;5093729;28;19944;-83
2021/08/26 00:56:53;;;;;;;;;;;;;;;12.87;72.61;96363.16;5076157;28;19966;-83
2021/08/26 00:59:19;;;;;;;;;;;;;;;12.85;72.47;96369.66;5094241;28;19962;-83
2021/08/26 01:01:48;;;;;;;;;;;;;;;12.82;72.56;96372.75;5092286;28;19964;-83
2021/08/26 01:04:20;;;;;;;;;;;;;;;12.79;72.22;96366.94;5093515;28;19951;-83
2021/08/26 01:06:49;;;;;;;;;;;;;;;12.78;72.38;96359.28;5093391;28;19955;-83
2021/08/26 01:09:18;;;;;;;;;;;;;;;12.75;72.50;96363.16;5096806;28;19955;-83
2021/08/26 01:11:45;;;;;;;;;;;;;;;12.72;72.49;96353.09;5097803;28;19960;-83
2021/08/26 01:14:11;;;;;;;;;;;;;;;12.69;72.79;96366.72;5097247;28;19965;-84
2021/08/26 01:16:37;;;;;;;;;;;;;;;12.65;72.86;96360.34;5097216;28;19969;-83
2021/08/26 01:19:03;;;;;;;;;;;;;;;12.61;73.16;96358.41;5096789;28;19953;-83
2021/08/26 01:21:30;;;;;;;;;;;;;;;12.55;72.88;96355.66;5097562;28;19953;-83
2021/08/26 01:24:00;;;;;;;;;;;;;;;12.50;73.01;96349.50;5095007;28;19953;-84
2021/08/26 01:26:32;;;;;;;;;;;;;;;12.45;73.44;96346.75;5097191;28;19963;-83
2021/08/26 01:28:58;;;;;;;;;;;;;;;12.41;73.11;96341.19;5094941;28;19972;-83
2021/08/26 01:31:24;;;;;;;;;;;;;;;12.38;73.11;96346.91;5097076;28;20327;-83
2021/08/26 01:33:51;;;;;;;;;;;;;;;12.36;73.38;96343.69;5096913;28;19965;-83
2021/08/26 01:36:18;;;;;;;;;;;;;;;12.32;73.13;96343.34;5096832;28;20318;-84
2021/08/26 01:38:44;;;;;;;;;;;;;;;12.28;73.25;96344.84;5094835;28;19974;-83
2021/08/26 01:41:12;;;;;;;;;;;;;;;12.25;73.45;96342.69;5096736;28;19951;-83
2021/08/26 01:43:38;;;;;;;;;;;;;;;12.21;73.40;96346.00;5094887;28;20323;-83
2021/08/26 01:46:04;;;;;;;;;;;;;;;12.17;73.32;96343.03;5096536;28;19994;-83
2021/08/26 01:48:30;;;;;;;;;;;;;;;12.15;73.28;96337.22;5097075;28;20324;-83
2021/08/26 01:50:56;;;;;;;;;;;;;;;12.11;73.33;96336.84;5094406;28;19987;-84
2021/08/26 01:53:22;;;;;;;;;;;;;;;12.08;73.90;96336.53;5095817;28;19981;-83
2021/08/26 01:55:48;;;;;;;;;;;;;;;12.04;73.66;96336.19;5096500;28;19954;-84
2021/08/26 01:58:14;;;;;;;;;;;;;;;12.01;73.40;96331.41;5094869;28;19971;-83
2021/08/26 02:00:40;;;;;;;;;;;;;;;11.98;73.27;96334.47;5094031;28;19965;-83
2021/08/26 02:03:06;;;;;;;;;;;;;;;11.95;73.67;96333.13;5077283;28;19964;-83
2021/08/26 02:05:32;;;;;;;;;;;;;;;11.91;74.09;96337.22;5096827;28;19950;-83
2021/08/26 02:07:58;;;;;;;;;;;;;;;11.90;74.03;96340.06;5096583;28;20337;-83
2021/08/26 02:10:24;;;;;;;;;;;;;;;11.87;73.72;96337.88;5096148;28;19952;-83
2021/08/26 02:12:50;;;;;;;;;;;;;;;11.86;74.00;96333.66;5096148;28;19949;-83
2021/08/26 02:15:16;;;;;;;;;;;;;;;11.82;73.73;96327.25;5096367;28;20394;-83
2021/08/26 02:17:42;;;;;;;;;;;;;;;11.80;74.24;96324.88;5094558;28;20023;-83
2021/08/26 02:20:08;;;;;;;;;;;;;;;11.77;74.13;96320.06;5096002;28;19961;-83
2021/08/26 02:22:35;;;;;;;;;;;;;;;11.76;73.97;96321.09;5094491;28;19975;-83
2021/08/26 02:25:01;;;;;;;;;;;;;;;11.75;74.03;96327.34;5095891;28;19966;-83
2021/08/26 02:27:26;;;;;;;;;;;;;;;11.72;74.09;96318.13;5077900;28;19997;-83
2021/08/26 02:29:52;;;;;;;;;;;;;;;11.70;74.55;96329.88;5095703;28;20060;-83
2021/08/26 02:32:18;;;;;;;;;;;;;;;11.68;74.60;96324.84;5096076;28;20406;-83
2021/08/26 02:34:44;;;;;;;;;;;;;;;11.67;74.42;96332.94;5095807;28;19995;-83
2021/08/26 02:37:10;;;;;;;;;;;;;;;11.64;74.20;96323.69;5095923;28;20007;-83
2021/08/26 02:39:36;;;;;;;;;;;;;;;11.62;74.55;96315.25;5095128;28;20333;-83
2021/08/26 02:42:03;;;;;;;;;;;;;;;11.58;74.60;96322.78;5095669;28;19958;-83
2021/08/26 02:44:29;;;;;;;;;;;;;;;11.57;74.51;96328.28;5095543;28;19958;-82
2021/08/26 02:46:55;;;;;;;;;;;;;;;11.56;74.19;96311.69;5095288;28;19956;-83
2021/08/26 02:49:21;;;;;;;;;;;;;;;11.56;74.60;96316.94;5095794;28;19986;-83
2021/08/26 02:51:47;;;;;;;;;;;;;;;11.55;74.78;96312.75;5095429;28;19951;-83
2021/08/26 02:54:13;;;;;;;;;;;;;;;11.56;75.11;96314.31;5095659;28;19966;-83
2021/08/26 02:56:39;;;;;;;;;;;;;;;11.54;74.90;96303.25;5095318;28;19948;-83
2021/08/26 02:59:05;;;;;;;;;;;;;;;11.54;75.07;96297.19;5095273;28;19958;-84
2021/08/26 03:01:31;;;;;;;;;;;;;;;11.52;75.30;96294.78;5093470;28;19971;-83
2021/08/26 03:03:57;;;;;;;;;;;;;;;11.50;75.78;96294.22;5095197;28;19959;-83
2021/08/26 03:06:23;;;;;;;;;;;;;;;11.47;75.61;96289.44;5093991;28;19950;-83
2021/08/26 03:08:49;;;;;;;;;;;;;;;11.43;75.27;96282.25;5095404;28;20003;-83
2021/08/26 03:11:15;;;;;;;;;;;;;;;11.41;75.29;96286.91;5095049;28;20008;-83
2021/08/26 03:13:40;;;;;;;;;;;;;;;11.36;75.51;96283.16;5076464;28;20035;-83
2021/08/26 03:16:07;;;;;;;;;;;;;;;11.35;75.46;96286.00;5094134;28;19967;-83
2021/08/26 03:18:33;;;;;;;;;;;;;;;11.32;75.34;96281.22;5093233;28;19965;-83
2021/08/26 03:20:58;;;;;;;;;;;;;;;11.31;75.66;96276.97;5094222;28;19960;-83
2021/08/26 03:23:24;;;;;;;;;;;;;;;11.31;75.29;96267.25;5094835;28;20504;-83
2021/08/26 03:25:51;;;;;;;;;;;;;;;11.31;75.53;96256.75;5093042;28;19950;-83
2021/08/26 03:28:18;;;;;;;;;;;;;;;11.32;76.08;96254.94;5094538;28;19956;-83
2021/08/26 03:30:44;;;;;;;;;;;;;;;11.30;76.08;96252.53;5093155;28;20432;-83
2021/08/26 03:33:10;;;;;;;;;;;;;;;11.32;75.94;96247.88;5094858;28;20317;-83
2021/08/26 03:35:36;;;;;;;;;;;;;;;11.33;76.17;96241.56;5093405;28;19961;-83
2021/08/26 03:38:03;;;;;;;;;;;;;;;11.34;76.54;96243.19;5094799;28;19954;-83
2021/08/26 03:40:29;;;;;;;;;;;;;;;11.36;76.59;96240.34;5094607;28;19972;-84
2021/08/26 03:42:55;;;;;;;;;;;;;;;11.38;76.41;96233.00;5093349;28;19954;-83
2021/08/26 03:45:21;;;;;;;;;;;;;;;11.39;77.09;96237.25;5094455;28;19951;-83
2021/08/26 03:47:47;;;;;;;;;;;;;;;11.39;76.83;96239.88;5093393;28;19960;-83
2021/08/26 03:50:13;;;;;;;;;;;;;;;11.41;76.74;96242.28;5094354;28;20065;-83
2021/08/26 03:52:39;;;;;;;;;;;;;;;11.41;76.91;96237.81;5094373;28;19953;-83
2021/08/26 03:55:06;;;;;;;;;;;;;;;11.41;76.91;96240.44;5094273;28;19959;-83
2021/08/26 03:57:32;;;;;;;;;;;;;;;11.43;77.26;96240.22;5093146;28;19981;-83
2021/08/26 03:59:58;;;;;;;;;;;;;;;11.43;77.67;96235.78;5094266;28;20387;-83
2021/08/26 04:02:24;;;;;;;;;;;;;;;11.44;77.58;96241.81;5094250;28;19948;-83
2021/08/26 04:04:49;;;;;;;;;;;;;;;11.45;78.70;96243.44;5094398;28;19954;-83
2021/08/26 04:07:17;;;;;;;;;;;;;;;11.44;78.02;96245.22;5094011;28;19946;-83
2021/08/26 04:09:44;;;;;;;;;;;;;;;11.44;78.17;96247.84;5094032;28;19949;-83
2021/08/26 04:12:10;;;;;;;;;;;;;;;11.45;78.06;96257.34;5093752;28;19950;-83
2021/08/26 04:14:36;;;;;;;;;;;;;;;11.45;77.99;96244.22;5094230;28;19950;-83
2021/08/26 04:17:02;;;;;;;;;;;;;;;11.44;77.99;96250.47;5094061;28;19949;-83
2021/08/26 04:19:28;;;;;;;;;;;;;;;11.46;77.33;96243.19;5094122;28;19954;-84
2021/08/26 04:21:54;;;;;;;;;;;;;;;11.46;77.21;96239.75;5094372;28;20326;-83
2021/08/26 04:24:20;;;;;;;;;;;;;;;11.47;76.86;96231.66;5093895;28;19951;-83
2021/08/26 04:26:46;;;;;;;;;;;;;;;11.45;77.23;96241.59;5094070;28;19956;-83
2021/08/26 04:29:12;;;;;;;;;;;;;;;11.43;77.70;96234.97;5093938;28;19945;-83
2021/08/26 04:31:38;;;;;;;;;;;;;;;11.38;77.94;96233.84;5093802;28;20019;-83
2021/08/26 04:34:04;;;;;;;;;;;;;;;11.38;77.49;96246.13;5093761;28;19946;-83
2021/08/26 04:36:30;;;;;;;;;;;;;;;11.35;77.30;96242.16;5093566;28;20316;-83
2021/08/26 04:38:55;;;;;;;;;;;;;;;11.34;78.14;96242.41;5059244;28;20074;-83
2021/08/26 04:41:21;;;;;;;;;;;;;;;11.29;77.53;96248.31;5093440;28;19953;-84
2021/08/26 04:43:47;;;;;;;;;;;;;;;11.27;77.46;96247.72;5095433;28;19996;-83
2021/08/26 04:46:13;;;;;;;;;;;;;;;11.27;77.97;96252.19;5098082;28;19993;-83
2021/08/26 04:48:39;;;;;;;;;;;;;;;11.25;78.11;96244.53;5096119;28;19992;-84
2021/08/26 04:51:05;;;;;;;;;;;;;;;11.26;78.26;96248.78;5096539;28;20023;-83
2021/08/26 04:53:30;;;;;;;;;;;;;;;11.26;78.03;96237.47;5097722;28;19960;-83
2021/08/26 04:55:57;;;;;;;;;;;;;;;11.27;78.22;96236.44;5097734;28;20069;-83
2021/08/26 04:58:23;;;;;;;;;;;;;;;11.29;78.61;96237.81;5096971;28;19974;-83
2021/08/26 05:00:49;;;;;;;;;;;;;;;11.29;78.27;96237.00;5085786;28;19954;-84
2021/08/26 05:03:14;;;;;;;;;;;;;;;11.30;79.14;96233.38;5097414;28;19951;-83
2021/08/26 05:05:40;;;;;;;;;;;;;;;11.32;79.27;96239.19;5096254;28;19962;-83
2021/08/26 05:08:06;;;;;;;;;;;;;;;11.33;78.73;96240.78;5095738;28;19967;-83
2021/08/26 05:10:32;;;;;;;;;;;;;;;11.34;78.71;96237.16;5096787;28;20034;-83
2021/08/26 05:12:58;;;;;;;;;;;;;;;11.37;79.04;96234.84;5096661;28;19950;-83
2021/08/26 05:15:24;;;;;;;;;;;;;;;11.38;78.77;96243.50;5097637;28;20291;-83
2021/08/26 05:17:50;;;;;;;;;;;;;;;11.40;78.72;96241.47;5097183;28;20011;-84
2021/08/26 05:20:16;;;;;;;;;;;;;;;11.42;78.84;96242.03;5096287;28;20473;-83
2021/08/26 05:22:42;;;;;;;;;;;;;;;11.47;79.24;96244.78;5097077;28;19949;-83
2021/08/26 05:25:08;;;;;;;;;;;;;;;11.49;78.46;96236.69;5095218;28;20001;-84
2021/08/26 05:27:34;;;;;;;;;;;;;;;11.52;78.74;96233.59;5097453;28;19946;-83
2021/08/26 05:30:00;;;;;;;;;;;;;;;11.55;78.90;96227.91;5097049;28;20007;-83
2021/08/26 05:32:26;;;;;;;;;;;;;;;11.58;78.64;96225.59;5095806;28;19956;-83
2021/08/26 05:34:52;;;;;;;;;;;;;;;11.60;78.45;96233.25;5096968;28;20428;-84
2021/08/26 05:37:18;;;;;;;;;;;;;;;11.62;78.98;96236.44;5096566;28;19959;-83
2021/08/26 05:39:45;;;;;;;;;;;;;;;11.64;79.59;96239.66;5096942;28;20000;-84
2021/08/26 05:42:11;;;;;;;;;;;;;;;11.64;78.72;96242.28;5097533;28;19962;-84
2021/08/26 05:44:37;;;;;;;;;;;;;;;11.67;78.35;96246.25;5096788;28;20046;-84
2021/08/26 05:47:03;;;;;;;;;;;;;;;11.69;78.14;96245.00;5096644;28;20472;-83
2021/08/26 05:49:29;;;;;;;;;;;;;;;11.72;77.86;96238.50;5096702;28;20047;-84
2021/08/26 05:51:56;;;;;;;;;;;;;;;11.75;78.29;96240.66;5096637;28;19966;-83
2021/08/26 05:54:22;;;;;;;;;;;;;;;11.74;77.84;96242.50;5096155;28;19956;-83
2021/08/26 05:56:49;;;;;;;;;;;;;;;11.74;78.42;96242.50;5096551;28;19961;-84
2021/08/26 05:59:15;;;;;;;;;;;;;;;11.77;78.02;96243.88;5096574;28;19974;-84
2021/08/26 06:01:42;;;;;;;;;;;;;;;11.82;78.17;96248.41;5096897;28;19953;-83
2021/08/26 06:04:08;;;;;;;;;;;;;;;11.82;77.85;96243.97;5095298;28;19949;-83
2021/08/26 06:06:34;;;;;;;;;;;;;;;11.84;77.87;96238.47;5111998;28;20368;-83
2021/08/26 06:09:00;;;;;;;;;;;;;;;11.87;78.74;96235.41;5095172;28;19958;-84
2021/08/26 06:11:26;;;;;;;;;;;;;;;11.92;78.26;96241.56;5096511;28;19954;-83
2021/08/26 06:13:52;;;;;;;;;;;;;;;12.00;78.93;96237.81;5096197;28;19998;-83
2021/08/26 06:16:18;;;;;;;;;;;;;;;12.07;78.64;96240.31;5096407;28;20035;-83
2021/08/26 06:18:43;;;;;;;;;;;;;;;12.15;78.51;96239.94;5096142;28;19964;-83
2021/08/26 06:21:10;;;;;;;;;;;;;;;12.23;78.03;96244.84;5094893;28;20410;-84
2021/08/26 06:23:37;;;;;;;;;;;;;;;12.29;77.30;96229.97;5107705;28;19955;-83
2021/08/26 06:26:03;;;;;;;;;;;;;;;12.36;77.86;96236.66;5092181;28;19945;-84
2021/08/26 06:28:29;;;;;;;;;;;;;;;12.42;77.03;96231.53;5094150;28;20019;-84
2021/08/26 06:30:54;;;;;;;;;;;;;;;12.45;76.59;96238.94;5095694;28;20425;-84
2021/08/26 06:33:20;;;;;;;;;;;;;;;12.46;77.12;96237.91;5093072;28;20002;-84
2021/08/26 06:35:46;;;;;;;;;;;;;;;12.47;77.23;96242.91;5095760;28;19990;-83
2021/08/26 06:38:12;;;;;;;;;;;;;;;12.52;77.32;96247.50;5094623;28;19972;-84
2021/08/26 06:40:38;;;;;;;;;;;;;;;12.54;76.92;96245.44;5111719;28;19950;-83
2021/08/26 06:43:04;;;;;;;;;;;;;;;12.51;77.59;96251.16;5095613;28;19954;-84
2021/08/26 06:45:30;;;;;;;;;;;;;;;12.53;78.20;96251.72;5095736;28;19953;-83
2021/08/26 06:47:56;;;;;;;;;;;;;;;12.53;77.81;96247.25;5094295;28;20485;-83
2021/08/26 06:50:22;;;;;;;;;;;;;;;12.57;77.52;96252.84;5095251;28;19977;-83
2021/08/26 06:52:48;;;;;;;;;;;;;;;12.59;78.21;96243.69;5095367;28;19963;-84
2021/08/26 06:55:13;;;;;;;;;;;;;;;12.63;78.16;96246.66;5095460;28;19966;-84
2021/08/26 06:57:39;;;;;;;;;;;;;;;12.65;78.45;96249.03;5094565;28;20045;-83
2021/08/26 07:00:06;;;;;;;;;;;;;;;12.63;78.10;96245.84;5095487;28;19996;-83
2021/08/26 07:02:32;;;;;;;;;;;;;;;12.59;78.23;96243.69;5095123;28;19950;-84
2021/08/26 07:04:58;;;;;;;;;;;;;;;12.61;78.11;96247.91;5094327;28;20068;-84
2021/08/26 07:07:24;;;;;;;;;;;;;;;12.65;78.29;96241.16;5094716;28;19960;-84
2021/08/26 07:09:50;;;;;;;;;;;;;;;12.71;77.93;96238.38;5093152;28;19946;-83
2021/08/26 07:12:15;;;;;;;;;;;;;;;12.77;78.23;96242.69;5095131;28;20347;-83
2021/08/26 07:14:41;;;;;;;;;;;;;;;12.80;77.50;96247.47;5093819;28;20047;-84
2021/08/26 07:17:07;;;;;;;;;;;;;;;12.82;78.47;96241.97;5094270;28;19955;-83
2021/08/26 07:19:33;;;;;;;;;;;;;;;12.81;77.22;96240.41;5094760;28;19975;-83
2021/08/26 07:22:02;;;;;;;;;;;;;;;12.77;76.99;96234.00;5094903;28;19957;-84
2021/08/26 07:24:29;;;;;;;;;;;;;;;12.76;77.44;96230.56;5092783;28;19948;-83
2021/08/26 07:26:55;;;;;;;;;;;;;;;12.78;77.78;96236.38;5093686;28;19956;-84
2021/08/26 07:29:21;;;;;;;;;;;;;;;12.76;76.72;96232.41;5094762;28;19954;-83
2021/08/26 07:31:47;;;;;;;;;;;;;;;12.71;77.83;96234.94;5093440;28;19954;-83
2021/08/26 07:34:13;;;;;;;;;;;;;;;12.67;79.44;96239.88;5093405;28;19971;-83
2021/08/26 07:36:39;;;;;;;;;;;;;;;12.68;78.63;96233.59;5094002;28;19960;-83
2021/08/26 07:39:05;;;;;;;;;;;;;;;12.72;77.85;96232.06;5094268;28;19972;-83
2021/08/26 07:41:31;;;;;;;;;;;;;;;12.75;77.05;96228.97;5092954;28;19944;-84
2021/08/26 07:43:57;;;;;;;;;;;;;;;12.78;77.34;96223.22;5094792;28;19953;-83
2021/08/26 07:46:24;;;;;;;;;;;;;;;12.80;77.96;96230.88;5093339;28;19956;-83
2021/08/26 07:48:50;;;;;;;;;;;;;;;12.85;78.00;96222.28;5093013;28;19976;-83
2021/08/26 07:51:16;;;;;;;;;;;;;;;12.89;77.79;96224.22;5095212;28;19950;-83
2021/08/26 07:53:42;;;;;;;;;;;;;;;12.95;77.69;96225.09;5093289;28;20326;-83
2021/08/26 07:56:08;;;;;;;;;;;;;;;12.98;77.73;96219.34;5094501;28;19957;-84
2021/08/26 07:58:34;;;;;;;;;;;;;;;12.98;78.02;96225.41;5094335;28;20061;-83
2021/08/26 08:01:00;;;;;;;;;;;;;;;12.99;78.17;96226.22;5094102;28;20403;-84
2021/08/26 08:03:26;;;;;;;;;;;;;;;13.06;78.50;96226.88;5094154;28;19950;-83
2021/08/26 08:05:52;;;;;;;;;;;;;;;13.10;78.40;96225.34;5093343;28;20017;-83
2021/08/26 08:08:18;;;;;;;;;;;;;;;13.17;78.21;96230.47;5091990;28;19953;-83
2021/08/26 08:10:44;;;;;;;;;;;;;;;13.23;77.67;96226.88;5094591;28;19951;-83
2021/08/26 08:13:10;;;;;;;;;;;;;;;13.31;78.39;96225.69;5092037;28;20005;-83
2021/08/26 08:15:37;;;;;;;;;;;;;;;13.37;77.48;96225.50;5094006;28;20388;-83
2021/08/26 08:18:03;;;;;;;;;;;;;;;13.43;77.03;96231.66;5093524;28;20023;-84
2021/08/26 08:20:29;;;;;;;;;;;;;;;13.48;76.59;96220.41;5093466;28;19983;-83
2021/08/26 08:22:55;;;;;;;;;;;;;;;13.50;76.55;96224.41;5092097;28;20474;-83
2021/08/26 08:25:21;;;;;;;;;;;;;;;13.53;76.33;96216.00;5093873;28;19952;-83
2021/08/26 08:27:47;;;;;;;;;;;;;;;13.60;76.51;96221.91;5093793;28;20326;-83
2021/08/26 08:30:13;;;;;;;;;;;;;;;13.69;75.82;96218.84;5094004;28;19948;-84
2021/08/26 08:32:39;;;;;;;;;;;;;;;13.74;76.38;96225.00;5092601;28;19954;-83
2021/08/26 08:35:05;;;;;;;;;;;;;;;13.78;75.98;96220.03;5094113;28;20395;-83
2021/08/26 08:37:31;;;;;;;;;;;;;;;13.84;75.90;96218.25;5093647;28;19948;-83
2021/08/26 08:39:57;;;;;;;;;;;;;;;13.88;76.10;96222.81;5093855;28;19970;-83
2021/08/26 08:42:23;;;;;;;;;;;;;;;13.95;76.01;96225.25;5093725;28;19986;-83
2021/08/26 08:44:49;;;;;;;;;;;;;;;14.07;76.33;96223.31;5093514;28;20314;-84
2021/08/26 08:47:16;;;;;;;;;;;;;;;14.35;76.24;96219.66;5092316;28;19943;-83
2021/08/26 08:49:42;;;;;;;;;;;;;;;14.75;77.50;96213.25;5092305;28;19982;-84
2021/08/26 08:52:09;;;;;;;;;;;;;;;14.96;73.56;96208.94;5094236;28;19961;-83
2021/08/26 08:54:36;;;;;;;;;;;;;;;15.18;74.27;96203.59;5093533;28;19958;-83
2021/08/26 08:57:02;;;;;;;;;;;;;;;15.32;74.51;96208.44;5093859;28;19959;-83
2021/08/26 08:59:35;;;;;;;;;;;;;;;15.30;72.97;96206.03;5091552;28;19971;-83
2021/08/26 09:02:01;;;;;;;;;;;;;;;15.20;71.97;96217.34;5093912;28;19960;-83
2021/08/26 09:04:27;;;;;;;;;;;;;;;15.11;73.05;96218.84;5093488;28;20317;-83
2021/08/26 09:06:53;;;;;;;;;;;;;;;15.06;73.09;96218.00;5093829;28;20000;-83
2021/08/26 09:09:20;;;;;;;;;;;;;;;14.99;74.07;96210.28;5092412;28;19957;-83
2021/08/26 09:11:50;;;;;;;;;;;;;;;14.93;73.97;96217.38;5092411;28;19953;-83
2021/08/26 09:14:17;;;;;;;;;;;;;;;14.91;74.68;96216.00;5093188;28;19954;-83
2021/08/26 09:16:44;;;;;;;;;;;;;;;14.88;75.10;96211.25;5093500;28;19950;-83
2021/08/26 09:19:17;;;;;;;;;;;;;;;14.90;75.92;96214.44;5093756;28;19973;-83
2021/08/26 09:21:43;;;;;;;;;;;;;;;14.88;77.27;96209.41;5092131;28;20330;-82
2021/08/26 09:24:09;;;;;;;;;;;;;;;14.89;77.22;96215.47;5093414;28;20341;-83
2021/08/26 09:26:35;;;;;;;;;;;;;;;14.88;78.08;96219.16;5092139;28;19954;-83
2021/08/26 09:29:02;;;;;;;;;;;;;;;14.86;77.39;96215.97;5076741;28;19988;-83
2021/08/26 09:31:29;;;;;;;;;;;;;;;14.83;77.67;96222.56;5095413;28;19949;-83
2021/08/26 09:33:59;;;;;;;;;;;;;;;14.80;77.39;96220.41;5096368;28;20020;-83
2021/08/26 09:36:27;;;;;;;;;;;;;;;14.77;77.46;96224.34;5096955;28;19952;-82
2021/08/26 09:39:06;;;;;;;;;;;;;;;14.75;78.59;96229.09;5095661;28;20306;-83
2021/08/26 09:41:35;;;;;;;;;;;;;;;14.68;78.86;96241.69;5096997;28;19951;-83
2021/08/26 09:44:02;;;;;;;;;;;;;;;14.63;79.67;96246.91;5112079;28;19960;-83
2021/08/26 09:46:29;;;;;;;;;;;;;;;14.56;79.07;96244.47;5097077;28;19961;-82
2021/08/26 09:49:02;;;;;;;;;;;;;;;14.45;81.81;96247.19;5095655;28;19956;-83
2021/08/26 09:51:31;;;;;;;;;;;;;;;14.38;82.26;96253.50;5078611;28;19952;-83
2021/08/26 09:53:58;;;;;;;;;;;;;;;14.28;83.13;96248.09;5096382;28;20049;-83
2021/08/26 09:56:24;;;;;;;;;;;;;;;14.20;83.71;96251.16;5095377;28;19956;-83
2021/08/26 09:58:54;;;;;;;;;;;;;;;14.19;83.03;96246.91;5095859;28;20058;-83
2021/08/26 10:01:21;;;;;;;;;;;;;;;14.15;81.50;96251.06;5096574;28;20440;-83
2021/08/26 10:03:48;;;;;;;;;;;;;;;14.14;84.91;96252.13;5096340;28;20420;-82
2021/08/26 10:06:15;;;;;;;;;;;;;;;14.18;84.44;96258.50;5077800;28;19959;-82
2021/08/26 10:08:42;;;;;;;;;;;;;;;14.22;83.09;96241.16;5077854;28;19960;-83
2021/08/26 10:11:09;;;;;;;;;;;;;;;14.27;83.49;96249.13;5094644;28;19949;-82
2021/08/26 10:13:36;;;;;;;;;;;;;;;14.35;84.06;96250.53;5074340;28;20021;-82
2021/08/26 10:16:02;;;;;;;;;;;;;;;14.36;83.53;96260.03;5095054;28;19977;-82
2021/08/26 10:18:28;;;;;;;;;;;;;;;14.39;83.63;96260.34;5096211;28;19977;-83
2021/08/26 10:20:55;;;;;;;;;;;;;;;14.44;83.49;96254.31;5077600;28;19957;-83
2021/08/26 10:23:22;;;;;;;;;;;;;;;14.49;82.59;96261.50;5096298;28;20324;-82
2021/08/26 10:25:49;;;;;;;;;;;;;;;14.53;83.10;96265.22;5094236;28;19952;-83
2021/08/26 10:28:16;;;;;;;;;;;;;;;14.56;82.61;96267.44;5077468;28;19959;-83
2021/08/26 10:30:42;;;;;;;;;;;;;;;14.54;85.92;96258.94;5094070;28;19956;-82
2021/08/26 10:33:09;;;;;;;;;;;;;;;14.50;84.94;96255.97;5076725;28;19958;-83
2021/08/26 10:35:51;;;;;;;;;;;;;;;14.46;84.00;96254.09;5077650;28;20281;-82
2021/08/26 10:38:20;;;;;;;;;;;;;;;14.43;79.72;96252.75;5076957;28;19970;-83
2021/08/26 10:40:46;;;;;;;;;;;;;;;14.38;83.73;96256.13;5094100;28;19981;-82
2021/08/26 10:43:31;;;;;;;;;;;;;;;14.40;84.42;96259.31;5077814;28;19954;-83
2021/08/26 10:45:57;;;;;;;;;;;;;;;14.39;83.45;96252.44;5076730;28;20481;-83
2021/08/26 10:48:25;;;;;;;;;;;;;;;14.36;84.01;96257.38;5090854;28;19960;-83
2021/08/26 10:51:06;;;;;;;;;;;;;;;14.30;83.26;96253.91;5076813;28;19978;-83
2021/08/26 10:53:34;;;;;;;;;;;;;;;14.32;84.44;96264.19;5094285;28;20415;-82
2021/08/26 10:56:17;;;;;;;;;;;;;;;14.26;83.86;96258.09;5095478;28;20319;-82
2021/08/26 10:58:43;;;;;;;;;;;;;;;14.21;82.24;96261.47;5094093;28;20529;-82
2021/08/26 11:01:11;;;;;;;;;;;;;;;14.13;84.04;96267.16;5095178;28;19961;-82
2021/08/26 11:03:46;;;;;;;;;;;;;;;14.02;83.73;96273.34;5095556;28;19952;-82
2021/08/26 11:06:19;;;;;;;;;;;;;;;14.00;85.42;96267.50;5093079;28;19947;-82
2021/08/26 11:08:52;;;;;;;;;;;;;;;14.00;83.46;96264.88;5093738;28;19950;-82
2021/08/26 11:11:24;;;;;;;;;;;;;;;14.06;82.32;96261.25;5095269;28;20431;-82
2021/08/26 11:13:50;;;;;;;;;;;;;;;14.17;82.55;96270.91;5095091;28;19960;-81
2021/08/26 11:16:24;;;;;;;;;;;;;;;14.27;82.15;96267.59;5095101;28;20400;-82
2021/08/26 11:18:52;;;;;;;;;;;;;;;14.39;82.76;96270.09;5092899;28;20313;-82
2021/08/26 11:21:36;;;;;;;;;;;;;;;14.41;81.06;96271.44;5094848;28;19957;-81
2021/08/26 11:24:02;;;;;;;;;;;;;;;14.33;79.91;96271.88;5093853;28;19956;-82
2021/08/26 11:26:51;;;;;;;;;;;;;;;14.25;80.76;96282.06;5093031;28;19993;-82
2021/08/26 11:29:17;;;;;;;;;;;;;;;14.11;79.94;96285.06;5082893;28;20327;-82
2021/08/26 11:31:44;;;;;;;;;;;;;;;13.98;81.27;96283.59;5092796;28;19952;-82
2021/08/26 11:34:12;;;;;;;;;;;;;;;13.80;78.82;96275.94;5093287;28;20386;-82
2021/08/26 11:36:38;;;;;;;;;;;;;;;13.57;79.45;96272.44;5094101;28;19957;-82
2021/08/26 11:39:06;;;;;;;;;;;;;;;13.50;79.91;96274.47;5093581;28;20199;-81
2021/08/26 11:41:32;;;;;;;;;;;;;;;13.47;79.85;96258.34;5076376;28;19993;-82
2021/08/26 11:43:58;;;;;;;;;;;;;;;13.47;79.59;96258.34;5094361;28;19954;-82
2021/08/26 11:46:24;;;;;;;;;;;;;;;13.54;80.60;96258.94;5093058;28;19954;-82
2021/08/26 11:48:52;;;;;;;;;;;;;;;13.60;78.21;96255.34;5075802;28;20359;-81
2021/08/26 11:51:22;;;;;;;;;;;;;;;13.67;78.05;96252.53;5094214;28;19954;-82
2021/08/26 11:53:48;;;;;;;;;;;;;;;13.74;78.81;96247.91;5092608;28;20408;-81
2021/08/26 11:56:14;;;;;;;;;;;;;;;13.78;77.54;96243.75;5094248;28;19954;-81
2021/08/26 11:58:40;;;;;;;;;;;;;;;13.87;79.84;96242.28;5094364;28;19951;-82
2021/08/26 12:01:06;;;;;;;;;;;;;;;13.99;79.06;96245.63;5094295;28;19956;-81
2021/08/26 12:03:32;;;;;;;;;;;;;;;14.12;78.75;96239.19;5093056;28;19964;-81
2021/08/26 12:05:58;;;;;;;;;;;;;;;14.23;78.52;96237.47;5092852;28;19957;-82
2021/08/26 12:08:24;;;;;;;;;;;;;;;14.27;76.73;96233.28;5094155;28;19990;-81
2021/08/26 12:10:51;;;;;;;;;;;;;;;14.34;77.08;96241.00;5075651;28;19964;-81
2021/08/26 12:13:21;;;;;;;;;;;;;;;14.40;78.05;96242.66;5092391;28;19957;-82
2021/08/26 12:15:49;;;;;;;;;;;;;;;14.46;76.86;96238.25;5094393;28;19959;-82
2021/08/26 12:18:16;;;;;;;;;;;;;;;14.53;77.51;96233.56;5094059;28;19956;-81
2021/08/26 12:20:46;;;;;;;;;;;;;;;14.58;77.80;96234.47;5093693;28;19971;-81
2021/08/26 12:23:17;;;;;;;;;;;;;;;14.64;76.75;96231.88;5094238;28;19947;-81
2021/08/26 12:25:43;;;;;;;;;;;;;;;14.65;76.98;96234.25;5092974;28;19952;-82
2021/08/26 12:28:10;;;;;;;;;;;;;;;14.68;75.28;96236.41;5094093;28;19952;-81
2021/08/26 12:30:36;;;;;;;;;;;;;;;14.66;73.81;96227.94;5093903;28;19950;-81
2021/08/26 12:33:20;;;;;;;;;;;;;;;14.65;74.39;96239.53;5094097;28;19958;-81
2021/08/26 12:35:47;;;;;;;;;;;;;;;14.63;74.09;96236.34;5081775;28;19977;-81
2021/08/26 12:38:15;;;;;;;;;;;;;;;14.59;75.45;96237.88;5093103;28;19959;-81
2021/08/26 12:40:50;;;;;;;;;;;;;;;14.53;73.45;96233.56;5091871;28;19960;-81
2021/08/26 12:43:16;;;;;;;;;;;;;;;14.56;75.58;96239.19;5092641;28;19952;-81
2021/08/26 12:45:43;;;;;;;;;;;;;;;14.59;74.03;96232.59;5093754;28;20399;-81
2021/08/26 12:48:24;;;;;;;;;;;;;;;14.64;74.05;96240.59;5091427;28;19953;-82
2021/08/26 12:51:05;;;;;;;;;;;;;;;14.70;74.30;96236.16;5093933;28;19981;-81